Time;durP1;ratioP1;P1;durP2;ratioP2;P2;SDS_P1;SDS_P2;PMS_P1;PMS_P2;Temp;Humidity;BMP_temperature;BMP_pressure;BME280_temperature;BME280_humidity;BME280_pressure;Samples;Min_cycle;Max_cycle;Signal;HPM_P1;HPM_P2
2024/01/26 00:02:52;;;;;;;8.93;2.15;;;;;;;4.81;82.06;149879.53;10679433;27;20103;-74
2024/01/26 00:07:54;;;;;;;4.03;1.58;;;;;;;4.80;82.45;149875.69;10679975;27;20073;-75
2024/01/26 00:12:57;;;;;;;6.47;1.88;;;;;;;4.97;81.23;149918.13;10677593;27;20039;-74
2024/01/26 00:17:58;;;;;;;13.35;2.20;;;;;;;4.85;81.84;149888.53;10678877;27;20046;-74
2024/01/26 00:23:01;;;;;;;8.07;2.05;;;;;;;4.78;82.13;149870.50;10659888;27;20068;-74
2024/01/26 00:28:04;;;;;;;5.38;2.20;;;;;;;4.55;83.16;149812.69;10658176;27;20062;-75
2024/01/26 00:33:06;;;;;;;8.77;1.80;;;;;;;4.61;82.43;149828.13;10677023;27;20062;-74
2024/01/26 00:38:09;;;;;;;8.85;3.15;;;;;;;4.38;83.07;149769.00;10676981;27;20070;-74
2024/01/26 00:43:11;;;;;;;7.22;2.60;;;;;;;4.34;83.53;149758.72;10676932;27;20502;-74
2024/01/26 00:48:13;;;;;;;8.75;2.22;;;;;;;4.11;85.00;149702.19;10677439;27;20041;-74
2024/01/26 00:53:15;;;;;;;8.52;2.38;;;;;;;4.11;84.45;149700.91;10676734;27;20126;-75
2024/01/26 00:58:16;;;;;;;6.97;2.05;;;;;;;3.99;85.22;149671.41;10677129;27;20038;-74
2024/01/26 01:03:19;;;;;;;8.23;1.98;;;;;;;3.88;85.51;149643.13;10677279;27;20050;-75
2024/01/26 01:08:21;;;;;;;5.38;1.90;;;;;;;3.72;86.26;149604.63;10675780;27;20039;-76
2024/01/26 01:13:23;;;;;;;4.53;2.90;;;;;;;3.51;87.58;149551.94;10674183;27;20083;-75
2024/01/26 01:18:24;;;;;;;7.07;2.33;;;;;;;3.33;88.34;149504.47;10674462;27;20099;-75
2024/01/26 01:23:26;;;;;;;7.43;2.17;;;;;;;3.17;88.85;149464.66;10674639;27;20054;-74
2024/01/26 01:28:28;;;;;;;12.23;2.72;;;;;;;3.03;89.91;149431.28;10675072;27;20031;-75
2024/01/26 01:33:30;;;;;;;7.15;2.90;;;;;;;2.98;90.92;149417.16;10675213;27;20034;-75
2024/01/26 01:38:32;;;;;;;6.18;2.33;;;;;;;2.88;91.40;149392.78;10674499;27;20122;-75
2024/01/26 01:43:34;;;;;;;6.03;2.25;;;;;;;2.95;90.67;149409.47;10674560;27;20046;-74
2024/01/26 01:48:36;;;;;;;5.07;2.17;;;;;;;2.71;92.27;149350.44;10674317;27;20041;-75
2024/01/26 01:53:38;;;;;;;7.85;3.00;;;;;;;2.86;92.09;149387.63;10675712;27;20042;-75
2024/01/26 01:58:41;;;;;;;8.75;2.67;;;;;;;2.98;91.00;149418.44;10674632;27;20049;-75
2024/01/26 02:03:43;;;;;;;7.93;2.40;;;;;;;2.87;91.62;149388.91;10674435;27;20402;-74
2024/01/26 02:08:45;;;;;;;7.70;2.40;;;;;;;2.82;91.04;149376.09;10672219;27;20049;-75
2024/01/26 02:13:46;;;;;;;4.95;2.33;;;;;;;2.93;90.98;149404.34;10672382;27;20117;-74
2024/01/26 02:18:49;;;;;;;8.13;3.13;;;;;;;2.87;90.82;149390.19;10675200;27;20074;-78
2024/01/26 02:23:53;;;;;;;6.05;2.25;;;;;;;3.01;90.85;149426.16;10656306;27;20047;-73
2024/01/26 02:28:54;;;;;;;6.57;2.05;;;;;;;2.93;90.50;149405.63;10654301;27;20042;-73
2024/01/26 02:33:56;;;;;;;7.07;1.80;;;;;;;2.83;90.60;149378.66;10652755;27;20479;-73
2024/01/26 02:38:58;;;;;;;7.65;2.20;;;;;;;2.71;91.01;149350.44;10672929;27;20478;-74
2024/01/26 02:44:01;;;;;;;7.95;2.38;;;;;;;2.46;92.58;149287.56;10671437;27;20043;-73
2024/01/26 02:49:04;;;;;;;3.75;2.00;;;;;;;2.34;93.53;149255.47;10671985;27;20035;-74
2024/01/26 02:54:06;;;;;;;9.38;2.63;;;;;;;2.17;94.26;149213.16;10671729;27;20513;-74
2024/01/26 02:59:08;;;;;;;11.80;3.17;;;;;;;2.00;95.98;149170.88;10671852;27;20031;-74
2024/01/26 03:04:10;;;;;;;6.90;2.90;;;;;;;1.99;96.58;149169.59;10672388;27;20125;-74
2024/01/26 03:09:11;;;;;;;6.43;2.65;;;;;;;1.99;96.78;149169.59;10672708;27;20065;-74
2024/01/26 03:14:15;;;;;;;6.40;4.32;;;;;;;2.18;96.66;149215.75;10671882;27;20521;-75
2024/01/26 03:19:17;;;;;;;6.00;2.88;;;;;;;2.17;96.62;149213.16;10651459;27;20047;-74
2024/01/26 03:24:20;;;;;;;10.32;2.75;;;;;;;2.17;96.21;149213.16;10671641;27;20039;-73
2024/01/26 03:29:22;;;;;;;4.68;2.80;;;;;;;2.20;96.23;149222.13;10671901;27;20118;-73
2024/01/26 03:34:24;;;;;;;5.53;2.65;;;;;;;2.05;95.63;149183.69;10678071;27;20069;-74
2024/01/26 03:39:26;;;;;;;8.40;2.70;;;;;;;1.98;96.38;149165.72;10677454;27;20073;-73
2024/01/26 03:44:28;;;;;;;12.27;2.92;;;;;;;2.04;96.78;149181.13;10679116;27;20068;-74
2024/01/26 03:49:30;;;;;;;12.02;3.45;;;;;;;2.12;96.83;149201.59;10659632;27;20075;-73
2024/01/26 03:54:32;;;;;;;9.15;2.78;;;;;;;2.11;97.52;149197.78;10677925;27;20046;-75
2024/01/26 03:59:33;;;;;;;9.13;3.22;;;;;;;2.10;98.42;149195.22;10679134;27;20038;-74
2024/01/26 04:04:35;;;;;;;6.15;2.88;;;;;;;2.19;98.18;149218.31;10677139;27;20046;-74
2024/01/26 04:09:37;;;;;;;8.32;3.03;;;;;;;2.24;97.89;149232.41;10678386;27;20045;-74
2024/01/26 04:14:39;;;;;;;7.15;2.90;;;;;;;2.22;98.80;149226.00;10659837;27;20050;-74
2024/01/26 04:19:41;;;;;;;11.32;3.22;;;;;;;2.29;98.46;149243.94;10675347;27;20046;-73
2024/01/26 04:24:43;;;;;;;5.70;2.47;;;;;;;2.38;98.04;149267.03;10676678;27;20122;-74
2024/01/26 04:29:44;;;;;;;8.60;2.70;;;;;;;2.34;98.86;149255.47;10676954;27;20034;-74
2024/01/26 04:34:47;;;;;;;5.03;2.83;;;;;;;2.47;98.12;149290.13;10677148;27;20038;-74
2024/01/26 04:39:50;;;;;;;5.10;2.60;;;;;;;2.59;97.28;149318.34;10677897;27;20043;-74
2024/01/26 04:44:54;;;;;;;5.07;2.58;;;;;;;2.49;96.83;149295.28;10677732;27;20058;-74
2024/01/26 04:49:56;;;;;;;6.15;2.33;;;;;;;2.50;96.85;149296.53;10676321;27;20043;-74
2024/01/26 04:54:58;;;;;;;5.15;2.40;;;;;;;2.43;97.79;149279.84;10675893;27;20064;-75
2024/01/26 05:00:00;;;;;;;4.47;2.63;;;;;;;2.43;98.09;149278.56;10675921;27;20046;-74
2024/01/26 05:05:01;;;;;;;8.40;2.35;;;;;;;2.57;97.43;149313.19;10674849;27;20053;-74
2024/01/26 05:10:05;;;;;;;6.22;2.70;;;;;;;2.57;97.84;149314.53;10673861;27;20038;-74
2024/01/26 05:15:11;;;;;;;12.27;3.47;;;;;;;2.62;97.71;149326.06;10674458;27;20129;-74
2024/01/26 05:20:13;;;;;;;6.35;2.78;;;;;;;2.62;97.23;149327.34;10655558;27;20379;-74
2024/01/26 05:25:15;;;;;;;5.57;3.30;;;;;;;2.70;97.48;149346.56;10674363;27;20062;-74
2024/01/26 05:30:17;;;;;;;6.15;3.08;;;;;;;2.77;97.20;149365.81;10676615;27;20046;-74
2024/01/26 05:35:20;;;;;;;6.30;3.50;;;;;;;3.08;96.01;149442.81;10675441;27;20046;-75
2024/01/26 05:40:22;;;;;;;7.20;2.45;;;;;;;3.12;95.67;149451.81;10675334;27;20037;-74
2024/01/26 05:45:23;;;;;;;6.60;3.28;;;;;;;2.90;97.22;149397.91;10655537;27;20047;-75
2024/01/26 05:50:26;;;;;;;7.55;2.58;;;;;;;2.81;97.84;149373.53;10636920;27;20042;-74
2024/01/26 05:55:28;;;;;;;4.28;2.60;;;;;;;2.83;98.00;149378.66;10652978;27;20087;-74
2024/01/26 06:00:29;;;;;;;10.75;2.88;;;;;;;2.92;97.63;149403.06;10653980;27;20550;-74
2024/01/26 06:05:31;;;;;;;4.35;2.47;;;;;;;2.96;97.75;149413.28;10673314;27;20107;-74
2024/01/26 06:10:33;;;;;;;7.13;2.17;;;;;;;3.11;96.90;149449.25;10672694;27;20127;-73
2024/01/26 06:15:37;;;;;;;6.07;2.65;;;;;;;3.27;95.30;149490.31;10672226;27;20069;-74
2024/01/26 06:20:39;;;;;;;9.68;2.50;;;;;;;3.36;93.98;149513.41;10672389;27;20093;-73
2024/01/26 06:25:41;;;;;;;6.35;3.08;;;;;;;3.50;91.29;149549.41;10671565;27;20410;-73
2024/01/26 06:30:43;;;;;;;6.72;2.40;;;;;;;3.36;93.35;149513.41;10672124;27;20494;-73
2024/01/26 06:35:45;;;;;;;4.38;1.90;;;;;;;3.11;95.24;149450.53;10652634;27;20038;-74
2024/01/26 06:40:47;;;;;;;6.93;2.30;;;;;;;3.09;96.28;149445.38;10672377;27;20045;-75
2024/01/26 06:45:49;;;;;;;5.45;2.55;;;;;;;3.10;96.86;149448.00;10654269;27;20051;-75
2024/01/26 06:50:51;;;;;;;5.40;2.25;;;;;;;3.16;96.48;149462.09;10653529;27;20061;-74
2024/01/26 06:55:53;;;;;;;4.55;2.20;;;;;;;3.19;96.65;149471.09;10654054;27;20145;-74
2024/01/26 07:00:54;;;;;;;3.05;1.88;;;;;;;3.22;96.62;149478.75;10655636;27;20038;-75
2024/01/26 07:05:56;;;;;;;31.75;10.38;;;;;;;3.36;95.07;149513.41;10674133;27;20081;-73
2024/01/26 07:10:59;;;;;;;19.08;5.90;;;;;;;3.30;96.01;149498.03;10672721;27;20084;-73
2024/01/26 07:16:00;;;;;;;14.13;4.20;;;;;;;3.42;96.38;149527.56;10653332;27;20043;-73
2024/01/26 07:21:07;;;;;;;10.30;2.83;;;;;;;3.50;95.88;149548.13;10671070;27;20180;-73
2024/01/26 07:26:09;;;;;;;8.18;3.75;;;;;;;3.54;96.30;149559.66;10651614;27;20043;-74
2024/01/26 07:31:11;;;;;;;5.68;2.67;;;;;;;3.83;93.67;149631.56;10670795;27;20047;-74
2024/01/26 07:36:13;;;;;;;7.20;3.25;;;;;;;3.71;95.08;149600.72;10670253;27;20046;-74
2024/01/26 07:41:15;;;;;;;4.47;2.60;;;;;;;3.62;95.94;149577.63;10651765;27;20043;-74
2024/01/26 07:46:17;;;;;;;9.48;3.40;;;;;;;3.90;94.87;149649.56;10670244;27;20031;-74
2024/01/26 07:51:19;;;;;;;4.53;2.65;;;;;;;3.98;94.22;149670.06;10652407;27;20041;-74
2024/01/26 07:56:21;;;;;;;11.45;3.17;;;;;;;4.02;93.54;149679.06;10669954;27;20402;-75
2024/01/26 08:01:23;;;;;;;8.20;2.88;;;;;;;4.31;92.15;149752.31;10671130;27;20039;-74
2024/01/26 08:06:25;;;;;;;5.15;2.72;;;;;;;4.04;93.37;149685.50;10669622;27;20066;-74
2024/01/26 08:11:27;;;;;;;5.93;2.70;;;;;;;3.92;96.15;149653.41;10669715;27;20046;-73
2024/01/26 08:16:30;;;;;;;7.72;3.30;;;;;;;3.88;97.28;149643.13;10633018;27;20071;-74
2024/01/26 08:21:32;;;;;;;4.38;2.22;;;;;;;4.05;96.65;149688.06;10657458;27;20052;-74
2024/01/26 08:26:35;;;;;;;4.05;2.50;;;;;;;4.12;96.25;149703.47;10677290;27;20037;-73
2024/01/26 08:31:37;;;;;;;11.80;5.78;;;;;;;4.17;96.21;149717.63;10677697;27;20045;-74
2024/01/26 08:36:38;;;;;;;7.72;3.10;;;;;;;4.35;95.14;149762.59;10658609;27;20031;-74
2024/01/26 08:41:43;;;;;;;5.05;2.90;;;;;;;4.46;95.13;149790.84;10679996;27;20046;-74
2024/01/26 08:46:45;;;;;;;5.30;2.40;;;;;;;4.64;94.47;149835.81;10678399;27;20039;-74
2024/01/26 08:51:47;;;;;;;7.07;2.35;;;;;;;4.72;94.15;149855.09;10676671;27;20063;-74
2024/01/26 08:56:49;;;;;;;11.38;2.47;;;;;;;4.76;94.86;149866.66;10676445;27;20079;-74
2024/01/26 09:01:51;;;;;;;7.07;3.10;;;;;;;5.15;92.94;149963.09;10677048;27;20125;-74
2024/01/26 09:06:53;;;;;;;6.00;2.58;;;;;;;5.37;91.34;150019.69;10676173;27;20065;-74
2024/01/26 09:12:05;;;;;;;4.72;2.40;;;;;;;5.28;92.46;149996.53;10675743;27;20042;-73
2024/01/26 09:17:08;;;;;;;6.15;3.28;;;;;;;5.60;91.41;150076.25;10675183;27;20383;-73
2024/01/26 09:22:10;;;;;;;5.15;2.90;;;;;;;5.62;93.15;150081.38;10675258;27;20043;-74
2024/01/26 09:27:11;;;;;;;9.23;4.05;;;;;;;5.61;95.47;150078.81;10673954;27;20558;-74
2024/01/26 09:32:14;;;;;;;7.78;3.13;;;;;;;5.46;97.49;150041.53;10674265;27;20070;-74
2024/01/26 09:37:16;;;;;;;6.32;2.90;;;;;;;5.76;95.24;150118.72;10674322;27;20070;-73
2024/01/26 09:42:17;;;;;;;6.90;2.55;;;;;;;5.68;96.13;150096.84;10673496;27;20150;-74
2024/01/26 09:47:21;;;;;;;6.13;2.85;;;;;;;6.04;93.90;150188.22;10674387;27;20502;-74
2024/01/26 09:52:23;;;;;;;5.97;2.67;;;;;;;6.28;91.97;150248.69;10656137;27;20443;-74
2024/01/26 09:57:27;;;;;;;5.53;3.00;;;;;;;6.37;93.28;150271.84;10674324;27;20042;-74
2024/01/26 10:02:29;;;;;;;9.05;2.92;;;;;;;6.31;93.89;150257.69;10673507;27;20035;-74
2024/01/26 10:07:31;;;;;;;12.18;2.75;;;;;;;6.47;93.32;150297.59;10671465;27;20039;-74
2024/01/26 10:12:35;;;;;;;6.50;2.65;;;;;;;6.91;92.11;150408.31;10653973;27;20046;-74
2024/01/26 10:17:38;;;;;;;5.97;3.47;;;;;;;6.91;94.08;150408.31;10672298;27;20031;-74
2024/01/26 10:22:41;;;;;;;5.05;2.53;;;;;;;7.11;92.72;150458.50;10673794;27;20038;-74
2024/01/26 10:27:43;;;;;;;4.95;2.38;;;;;;;7.06;93.79;150446.94;10672138;27;20490;-74
2024/01/26 10:32:46;;;;;;;4.45;2.33;;;;;;;7.44;91.42;150540.97;10672824;27;20482;-73
2024/01/26 10:37:51;;;;;;;2.13;1.33;;;;;;;7.83;93.81;150641.44;10672805;27;20047;-74
2024/01/26 10:42:54;;;;;;;0.57;0.57;;;;;;;8.71;100.00;150863.16;10652634;27;20063;-73
2024/01/26 10:47:58;;;;;;;0.80;0.35;;;;;;;9.57;93.83;151079.84;10671656;27;20035;-75
2024/01/26 10:53:03;;;;;;;2.22;0.40;;;;;;;9.92;91.32;151168.91;10671701;27;20443;-74
2024/01/26 10:58:05;;;;;;;0.45;0.28;;;;;;;10.20;89.34;151238.56;10653747;27;20083;-75
2024/01/26 11:03:09;;;;;;;1.30;0.30;;;;;;;10.34;87.74;151276.06;10652980;27;20152;-75
2024/01/26 11:08:21;;;;;;;0.40;0.20;;;;;;;10.58;85.27;151336.75;10671547;27;20133;-75
2024/01/26 11:13:24;;;;;;;0.20;0.20;;;;;;;10.83;83.64;151398.72;10672895;27;20043;-76
2024/01/26 11:18:26;;;;;;;1.05;0.40;;;;;;;10.86;83.37;151407.75;10672156;27;20043;-74
2024/01/26 11:23:42;;;;;;;0.20;0.20;;;;;;;10.77;84.87;151384.53;10671416;27;20482;-74
2024/01/26 11:28:45;;;;;;;0.35;0.35;;;;;;;10.93;84.59;151423.25;10672615;27;20056;-75
2024/01/26 11:33:49;;;;;;;0.55;0.20;;;;;;;11.01;83.46;151445.19;10671055;27;20042;-76
2024/01/26 11:38:53;;;;;;;0.30;0.20;;;;;;;10.88;83.81;151411.63;10636879;27;20043;-77
2024/01/26 11:44:05;;;;;;;0.13;0.13;;;;;;;10.94;83.75;151427.16;10635962;27;20064;-75
2024/01/26 11:49:07;;;;;;;0.50;0.30;;;;;;;11.07;82.80;151459.44;10670310;27;20467;-75
2024/01/26 11:54:10;;;;;;;0.30;0.20;;;;;;;10.97;82.28;151433.56;10654218;27;20047;-74
2024/01/26 11:59:12;;;;;;;0.17;0.17;;;;;;;11.10;82.18;151467.16;10678823;27;20043;-75
2024/01/26 12:04:13;;;;;;;0.75;0.20;;;;;;;11.14;82.36;151476.22;10679626;27;20043;-74
2024/01/26 12:09:16;;;;;;;0.20;0.20;;;;;;;11.08;81.44;151462.00;10677933;27;20039;-74
2024/01/26 12:14:18;;;;;;;0.10;0.10;;;;;;;11.07;82.29;151460.72;10676465;27;20066;-73
2024/01/26 12:19:20;;;;;;;0.10;0.10;;;;;;;11.16;80.50;151482.69;10658098;27;20042;-74
2024/01/26 12:24:23;;;;;;;0.30;0.20;;;;;;;11.22;80.71;151498.16;10677775;27;20053;-75
2024/01/26 12:29:25;;;;;;;0.40;0.40;;;;;;;11.08;81.15;151462.00;10678158;27;20038;-74
2024/01/26 12:34:27;;;;;;;0.10;0.10;;;;;;;11.01;81.79;151445.19;10660841;27;20091;-75
2024/01/26 12:39:30;;;;;;;1.13;0.30;;;;;;;10.94;81.97;151427.16;10682165;27;20041;-74
2024/01/26 12:44:33;;;;;;;0.52;0.40;;;;;;;10.88;82.93;151410.34;10644324;27;20050;-73
2024/01/26 12:49:36;;;;;;;0.32;0.25;;;;;;;10.88;83.27;151411.63;10678303;27;20081;-73
2024/01/26 12:54:38;;;;;;;0.65;0.20;;;;;;;10.94;82.94;151425.88;10678955;27;20478;-75
2024/01/26 12:59:40;;;;;;;0.82;0.40;;;;;;;10.90;82.97;151416.81;10657658;27;20106;-75
2024/01/26 13:04:42;;;;;;;0.40;0.30;;;;;;;10.88;84.82;151411.63;10676560;27;20103;-76
2024/01/26 13:09:44;;;;;;;0.30;0.30;;;;;;;10.67;90.21;151357.38;10658804;27;20118;-74
2024/01/26 13:14:46;;;;;;;0.75;0.30;;;;;;;10.24;98.46;151250.25;10677765;27;20046;-73
2024/01/26 13:19:48;;;;;;;0.30;0.30;;;;;;;9.86;100.00;151154.66;10676428;27;20414;-73
2024/01/26 13:25:05;;;;;;;;;;;;;;;9.67;100.00;151105.66;10659532;27;20050;-74
2024/01/26 13:30:08;;;;;;;1.05;0.50;;;;;;;9.52;100.00;151066.97;10660318;27;19955;-75
2024/01/26 13:35:10;;;;;;;0.30;0.30;;;;;;;9.51;100.00;151064.34;10679760;27;20050;-74
2024/01/26 13:40:12;;;;;;;1.23;0.30;;;;;;;9.52;100.00;151068.25;10674086;27;20073;-73
2024/01/26 13:45:15;;;;;;;0.93;0.52;;;;;;;9.35;100.00;151024.38;10654917;27;20462;-73
2024/01/26 13:50:17;;;;;;;0.25;0.20;;;;;;;9.32;100.00;151017.91;10675462;27;20126;-73
2024/01/26 13:55:19;;;;;;;0.55;0.20;;;;;;;9.39;100.00;151034.72;10673181;27;20082;-74
2024/01/26 14:00:22;;;;;;;0.77;0.30;;;;;;;9.44;100.00;151046.31;10674778;27;20034;-74
2024/01/26 14:05:24;;;;;;;0.63;0.40;;;;;;;9.46;100.00;151052.75;10658207;27;20103;-75
2024/01/26 14:10:26;;;;;;;0.32;0.30;;;;;;;9.58;100.00;151082.44;10674108;27;20107;-74
2024/01/26 14:15:31;;;;;;;0.40;0.30;;;;;;;9.69;100.00;151109.50;10673161;27;20039;-75
2024/01/26 14:20:35;;;;;;;0.40;0.30;;;;;;;9.65;100.00;151099.19;10673188;27;20062;-73
2024/01/26 14:25:38;;;;;;;1.83;0.40;;;;;;;9.68;100.00;151106.94;10654830;27;20045;-73
2024/01/26 14:30:40;;;;;;;0.25;0.20;;;;;;;9.88;100.00;151158.56;10672776;27;20042;-74
2024/01/26 14:35:43;;;;;;;0.52;0.40;;;;;;;9.98;100.00;151183.06;10654938;27;20066;-74
2024/01/26 14:40:45;;;;;;;0.50;0.35;;;;;;;9.96;100.00;151177.88;10674390;27;20091;-75
2024/01/26 14:45:47;;;;;;;0.10;0.10;;;;;;;9.95;100.00;151175.31;10676465;27;20043;-75
2024/01/26 14:50:49;;;;;;;0.28;0.28;;;;;;;10.02;100.00;151193.41;10657736;27;20448;-74
2024/01/26 14:55:51;;;;;;;0.32;0.20;;;;;;;10.15;100.00;151226.97;10674294;27;20046;-73
2024/01/26 15:00:53;;;;;;;0.28;0.28;;;;;;;10.25;100.00;151252.81;10671089;27;20034;-74
2024/01/26 15:05:55;;;;;;;0.55;0.20;;;;;;;10.29;98.83;151261.84;10672293;27;20049;-73
2024/01/26 15:10:57;;;;;;;0.10;0.10;;;;;;;10.28;99.34;151260.56;10654249;27;20031;-75
2024/01/26 15:15:59;;;;;;;0.30;0.20;;;;;;;10.29;99.53;151261.84;10656713;27;20042;-75
2024/01/26 15:21:00;;;;;;;0.35;0.28;;;;;;;10.23;100.00;151246.34;10656166;27;20060;-73
2024/01/26 15:26:03;;;;;;;0.22;0.20;;;;;;;10.40;98.08;151290.22;10655951;27;20042;-74
2024/01/26 15:31:05;;;;;;;0.20;0.20;;;;;;;10.37;98.37;151281.25;10662862;27;20091;-74
2024/01/26 15:36:07;;;;;;;0.73;0.50;;;;;;;10.30;98.82;151264.44;10661951;27;20141;-74
2024/01/26 15:41:09;;;;;;;0.50;0.25;;;;;;;10.27;99.67;151258.00;10679951;27;20039;-73
2024/01/26 15:46:10;;;;;;;0.77;0.32;;;;;;;10.17;100.00;151230.81;10660551;27;20084;-73
2024/01/26 15:51:13;;;;;;;0.32;0.20;;;;;;;9.95;100.00;151175.31;10681163;27;20043;-72
2024/01/26 15:56:15;;;;;;;0.32;0.30;;;;;;;9.93;100.00;151171.47;10680187;27;20049;-72
2024/01/26 16:01:17;;;;;;;0.20;0.20;;;;;;;10.00;100.00;151189.50;10679411;27;20113;-73
2024/01/26 16:06:20;;;;;;;0.68;0.50;;;;;;;9.89;100.00;151159.84;10662969;27;20050;-74
2024/01/26 16:11:21;;;;;;;0.85;0.40;;;;;;;8.67;100.00;150852.84;10678094;27;20064;-73
2024/01/26 16:16:23;;;;;;;0.77;0.30;;;;;;;7.29;100.00;150503.59;10679710;27;20030;-72
2024/01/26 16:21:25;;;;;;;4.28;0.80;;;;;;;7.06;100.00;150445.66;10661418;27;20038;-72
2024/01/26 16:26:27;;;;;;;1.48;0.50;;;;;;;6.85;100.00;150392.84;10679281;27;20125;-72
2024/01/26 16:31:29;;;;;;;1.90;0.73;;;;;;;7.04;100.00;150441.81;10680459;27;20039;-75
2024/01/26 16:36:35;;;;;;;1.30;0.47;;;;;;;7.01;100.00;150432.78;10679903;27;20558;-73
2024/01/26 16:41:37;;;;;;;0.65;0.55;;;;;;;6.98;100.00;150425.03;10659047;27;20046;-73
2024/01/26 16:46:39;;;;;;;0.90;0.30;;;;;;;7.07;100.00;150449.50;10678865;27;20037;-72
2024/01/26 16:51:41;;;;;;;1.50;0.50;;;;;;;7.15;100.00;150467.53;10678126;27;20043;-73
2024/01/26 16:56:43;;;;;;;2.03;0.98;;;;;;;7.38;98.64;150525.47;10659409;27;20091;-73
2024/01/26 17:01:45;;;;;;;0.85;0.38;;;;;;;7.39;97.66;150529.34;10658069;27;20042;-73
2024/01/26 17:06:47;;;;;;;0.93;0.43;;;;;;;7.36;93.96;150520.34;10677205;27;20122;-72
2024/01/26 17:11:48;;;;;;;2.13;0.73;;;;;;;7.40;90.15;150530.66;10658477;27;20046;-72
2024/01/26 17:16:50;;;;;;;1.55;0.52;;;;;;;7.36;87.03;150520.34;10635262;27;20126;-73
2024/01/26 17:21:52;;;;;;;1.73;0.75;;;;;;;7.23;87.02;150488.16;10633072;27;20039;-73
2024/01/26 17:26:54;;;;;;;4.30;0.50;;;;;;;7.23;85.33;150488.16;10615172;27;20503;-73
2024/01/26 17:31:59;;;;;;;2.10;0.50;;;;;;;7.06;85.59;150445.66;10632331;27;20057;-73
2024/01/26 17:37:01;;;;;;;1.38;0.30;;;;;;;6.89;85.27;150403.16;10632715;27;20100;-73
2024/01/26 17:42:03;;;;;;;1.75;0.52;;;;;;;6.94;84.03;150414.72;10630141;27;20039;-73
2024/01/26 17:47:05;;;;;;;1.00;0.40;;;;;;;6.92;80.22;150409.59;10631165;27;20054;-73
2024/01/26 17:52:08;;;;;;;1.35;0.60;;;;;;;6.82;81.10;150386.44;10611943;27;20495;-72
2024/01/26 17:57:10;;;;;;;1.05;0.40;;;;;;;6.81;79.63;150382.53;10630571;27;20122;-72
2024/01/26 18:02:12;;;;;;;1.60;0.60;;;;;;;6.69;79.91;150351.69;10631316;27;20039;-73
2024/01/26 18:07:14;;;;;;;0.55;0.28;;;;;;;6.63;79.78;150337.47;10631707;27;20039;-72
2024/01/26 18:12:17;;;;;;;1.10;0.30;;;;;;;6.75;78.63;150368.38;10631601;27;20043;-73
2024/01/26 18:17:19;;;;;;;3.03;0.90;;;;;;;6.69;78.62;150351.69;10631340;27;20031;-73
2024/01/26 18:22:21;;;;;;;1.33;0.65;;;;;;;6.73;80.15;150361.94;10631134;27;20039;-73
2024/01/26 18:27:22;;;;;;;1.40;0.80;;;;;;;6.82;79.00;150385.16;10630655;27;20039;-73
2024/01/26 18:32:24;;;;;;;2.30;1.38;;;;;;;6.80;80.69;150379.97;10628437;27;20521;-72
2024/01/26 18:37:26;;;;;;;1.98;0.80;;;;;;;6.64;80.77;150338.75;10629680;27;20604;-72
2024/01/26 18:42:28;;;;;;;2.10;0.70;;;;;;;6.92;79.32;150410.88;10611819;27;20414;-73
2024/01/26 18:47:30;;;;;;;1.20;0.80;;;;;;;6.94;80.36;150414.72;10629591;27;20057;-72
2024/01/26 18:52:32;;;;;;;0.57;0.30;;;;;;;6.67;81.76;150347.78;10629896;27;20047;-72
2024/01/26 18:57:35;;;;;;;1.27;0.47;;;;;;;6.64;82.74;150338.75;10610013;27;20104;-72
2024/01/26 19:02:37;;;;;;;1.98;0.55;;;;;;;6.61;84.33;150331.06;10628037;27;20420;-73
2024/01/26 19:07:41;;;;;;;2.53;0.73;;;;;;;6.57;84.72;150322.06;10611733;27;20414;-73
2024/01/26 19:12:46;;;;;;;0.65;0.43;;;;;;;6.34;84.18;150262.88;10629980;27;20043;-74
2024/01/26 19:17:48;;;;;;;1.50;0.40;;;;;;;6.15;85.64;150215.22;10630036;27;20448;-75
2024/01/26 19:22:51;;;;;;;1.70;0.63;;;;;;;6.17;86.53;150220.41;10611735;27;20043;-72
2024/01/26 19:27:53;;;;;;;0.70;0.55;;;;;;;6.10;87.08;150202.34;10629779;27;20079;-72
2024/01/26 19:32:54;;;;;;;2.05;0.55;;;;;;;6.06;88.06;150193.34;10610844;28;20078;-72
2024/01/26 19:37:57;;;;;;;1.98;0.50;;;;;;;5.88;90.37;150148.28;10628453;28;20063;-73
2024/01/26 19:43:00;;;;;;;0.57;0.35;;;;;;;5.90;92.04;150153.44;10628445;27;20043;-73
2024/01/26 19:48:02;;;;;;;1.65;0.77;;;;;;;5.94;92.12;150162.50;10609496;28;20085;-72
2024/01/26 19:53:05;;;;;;;1.35;0.40;;;;;;;5.89;92.12;150150.88;10628853;27;20509;-72
2024/01/26 19:58:06;;;;;;;1.00;0.40;;;;;;;5.72;94.31;150108.41;10628122;28;20118;-72
2024/01/26 20:03:11;;;;;;;1.40;0.50;;;;;;;5.59;98.26;150074.97;10628564;27;20042;-73
2024/01/26 20:08:13;;;;;;;1.17;0.30;;;;;;;5.23;97.78;149983.69;10627796;28;20076;-73
2024/01/26 20:13:15;;;;;;;0.93;0.30;;;;;;;5.19;97.28;149974.66;10629836;27;20043;-73
2024/01/26 20:18:17;;;;;;;5.00;1.02;;;;;;;5.10;97.08;149951.53;10636505;27;20070;-73
2024/01/26 20:23:22;;;;;;;2.22;0.30;;;;;;;5.09;95.31;149948.97;10634548;27;20043;-72
2024/01/26 20:28:25;;;;;;;4.10;0.80;;;;;;;4.96;94.64;149915.53;10636924;27;20054;-73
2024/01/26 20:33:27;;;;;;;1.83;0.60;;;;;;;4.98;95.02;149921.94;10636448;27;20043;-73
2024/01/26 20:38:30;;;;;;;1.90;0.50;;;;;;;5.09;93.56;149947.66;10635826;27;20042;-72
2024/01/26 20:43:32;;;;;;;0.98;0.30;;;;;;;4.99;94.42;149923.22;10635077;27;20070;-72
2024/01/26 20:48:34;;;;;;;1.58;0.40;;;;;;;4.91;95.37;149902.66;10617497;27;20448;-72
2024/01/26 20:53:36;;;;;;;1.35;0.47;;;;;;;4.90;95.12;149900.09;10617660;27;20047;-73
2024/01/26 20:58:38;;;;;;;2.53;0.73;;;;;;;4.77;96.44;149869.22;10616643;27;20491;-72
2024/01/26 21:03:42;;;;;;;1.83;0.60;;;;;;;4.71;96.56;149852.56;10635124;27;20043;-73
2024/01/26 21:08:45;;;;;;;1.40;0.45;;;;;;;4.89;94.40;149897.53;10599613;27;20075;-72
2024/01/26 21:13:48;;;;;;;2.83;1.10;;;;;;;4.69;95.91;149848.72;10615699;27;20135;-73
2024/01/26 21:18:50;;;;;;;2.40;0.60;;;;;;;4.63;95.88;149833.25;10598552;27;20050;-72
2024/01/26 21:23:55;;;;;;;3.30;0.77;;;;;;;4.67;94.99;149842.25;10634137;27;20039;-73
2024/01/26 21:28:58;;;;;;;4.97;1.63;;;;;;;4.45;96.02;149787.00;10633557;27;20039;-73
2024/01/26 21:33:59;;;;;;;4.95;0.82;;;;;;;4.42;95.89;149780.56;10633793;27;20047;-73
2024/01/26 21:39:02;;;;;;;3.47;0.60;;;;;;;4.55;95.16;149813.97;10614591;27;20457;-72
2024/01/26 21:44:04;;;;;;;2.05;0.80;;;;;;;4.55;95.32;149812.69;10632880;27;20121;-73
2024/01/26 21:49:05;;;;;;;4.88;0.90;;;;;;;4.54;94.89;149811.41;10632385;27;20035;-72
2024/01/26 21:54:08;;;;;;;4.85;1.05;;;;;;;4.52;94.02;149806.28;10632355;27;20564;-73
2024/01/26 21:59:10;;;;;;;3.72;0.63;;;;;;;4.59;92.03;149821.69;10613554;27;20451;-72
2024/01/26 22:04:12;;;;;;;3.10;0.70;;;;;;;4.55;90.74;149813.97;10632603;27;20123;-73
2024/01/26 22:09:15;;;;;;;2.38;0.60;;;;;;;4.46;90.71;149789.56;10614644;27;20046;-71
2024/01/26 22:14:17;;;;;;;2.00;0.70;;;;;;;4.46;89.15;149789.56;10631347;27;20058;-72
2024/01/26 22:19:19;;;;;;;3.25;1.05;;;;;;;4.40;88.34;149775.44;10612225;27;20043;-73
2024/01/26 22:24:21;;;;;;;10.68;1.13;;;;;;;4.52;87.10;149805.00;10630544;27;20123;-72
2024/01/26 22:29:23;;;;;;;4.18;0.80;;;;;;;4.35;88.50;149762.59;10629919;27;20495;-72
2024/01/26 22:34:25;;;;;;;4.13;0.55;;;;;;;4.45;87.01;149787.00;10630299;27;20096;-71
2024/01/26 22:39:27;;;;;;;5.43;0.60;;;;;;;4.18;88.73;149720.19;10628689;27;20110;-72
2024/01/26 22:44:29;;;;;;;5.00;0.95;;;;;;;4.30;86.24;149749.75;10629305;27;20043;-73
2024/01/26 22:49:31;;;;;;;7.10;0.63;;;;;;;4.47;83.71;149793.44;10629671;27;20449;-72
2024/01/26 22:54:33;;;;;;;4.93;0.70;;;;;;;4.47;83.06;149793.44;10629484;27;20031;-71
2024/01/26 22:59:34;;;;;;;1.50;0.38;;;;;;;4.24;84.04;149734.31;10629949;27;20092;-72
2024/01/26 23:04:36;;;;;;;2.88;0.68;;;;;;;4.27;83.61;149742.03;10628942;27;20077;-72
2024/01/26 23:09:38;;;;;;;4.07;0.70;;;;;;;4.44;82.57;149785.72;10628563;27;20042;-73
2024/01/26 23:14:40;;;;;;;3.05;0.45;;;;;;;4.39;82.26;149772.88;10628427;27;20091;-72
2024/01/26 23:19:41;;;;;;;0.63;0.38;;;;;;;4.43;82.26;149783.16;10627248;27;20094;-72